Time;durP1;ratioP1;P1;durP2;ratioP2;P2;SDS_P1;SDS_P2;PMS_P1;PMS_P2;Temp;Humidity;BMP_temperature;BMP_pressure;BME280_temperature;BME280_humidity;BME280_pressure;Samples;Min_cycle;Max_cycle;Signal;HPM_P1;HPM_P2
2021/07/30 00:00:08;;;;;;;8.90;3.97;;;14.30;99.90;;;;;;5083406;28;20044;-78
2021/07/30 00:02:35;;;;;;;10.68;4.03;;;14.30;99.90;;;;;;5083681;28;20080;-77
2021/07/30 00:05:02;;;;;;;7.90;3.70;;;14.20;99.90;;;;;;5083161;28;20058;-78
2021/07/30 00:07:28;;;;;;;6.57;3.13;;;14.20;99.90;;;;;;5067147;28;20039;-78
2021/07/30 00:09:54;;;;;;;11.90;4.30;;;14.20;99.90;;;;;;5066106;28;20502;-78
2021/07/30 00:12:21;;;;;;;7.25;4.28;;;14.20;99.90;;;;;;5049873;28;20044;-78
2021/07/30 00:14:47;;;;;;;10.27;4.40;;;14.10;99.90;;;;;;5066236;28;20094;-78
2021/07/30 00:17:14;;;;;;;7.35;4.32;;;14.10;99.90;;;;;;5066252;28;20466;-78
2021/07/30 00:19:40;;;;;;;5.63;3.22;;;14.10;99.90;;;;;;5048520;28;20048;-78
2021/07/30 00:22:06;;;;;;;7.97;4.15;;;14.10;99.90;;;;;;5066504;28;20036;-78
2021/07/30 00:24:33;;;;;;;10.85;3.67;;;14.00;99.90;;;;;;5055890;28;20043;-78
2021/07/30 00:27:02;;;;;;;6.32;3.88;;;14.00;99.90;;;;;;5082886;28;20411;-78
2021/07/30 00:29:29;;;;;;;5.75;3.17;;;14.00;99.90;;;;;;5049265;28;20039;-78
2021/07/30 00:31:59;;;;;;;8.23;3.67;;;14.00;99.90;;;;;;5066971;28;20036;-78
2021/07/30 00:34:26;;;;;;;8.50;3.83;;;14.00;99.90;;;;;;5048673;28;20075;-78
2021/07/30 00:36:52;;;;;;;8.48;4.35;;;14.00;99.90;;;;;;5065153;28;20047;-78
2021/07/30 00:39:19;;;;;;;4.93;3.83;;;14.00;99.90;;;;;;5065630;28;20047;-78
2021/07/30 00:41:45;;;;;;;6.95;3.80;;;14.00;99.90;;;;;;5065025;28;20059;-78
2021/07/30 00:44:12;;;;;;;6.30;4.85;;;13.90;99.90;;;;;;5082054;28;20048;-82
2021/07/30 00:46:38;;;;;;;8.48;4.25;;;13.90;99.90;;;;;;5049261;28;20048;-82
2021/07/30 00:49:05;;;;;;;8.27;4.40;;;13.90;99.90;;;;;;5048518;28;20499;-82
2021/07/30 00:51:32;;;;;;;8.68;4.07;;;13.90;99.90;;;;;;5084765;28;20070;-82
2021/07/30 00:53:59;;;;;;;7.95;3.70;;;13.80;99.90;;;;;;5033087;28;20044;-82
2021/07/30 00:56:25;;;;;;;6.70;3.15;;;13.80;99.90;;;;;;5081650;28;20047;-82
2021/07/30 00:58:52;;;;;;;4.65;3.30;;;13.80;99.90;;;;;;5048573;28;20389;-82
2021/07/30 01:01:19;;;;;;;6.45;3.47;;;13.80;99.90;;;;;;5066116;28;20040;-82
2021/07/30 01:03:45;;;;;;;4.57;3.92;;;13.80;99.90;;;;;;5066263;28;20063;-83
2021/07/30 01:06:12;;;;;;;8.60;4.35;;;13.70;99.90;;;;;;5081547;28;20620;-83
2021/07/30 01:08:39;;;;;;;7.50;4.63;;;13.70;99.90;;;;;;5047819;28;20032;-82
2021/07/30 01:11:05;;;;;;;6.95;4.90;;;13.70;99.90;;;;;;5085907;28;20043;-82
2021/07/30 01:13:31;;;;;;;6.70;4.50;;;13.70;99.90;;;;;;5083206;28;20039;-82
2021/07/30 01:16:01;;;;;;;9.30;3.92;;;13.70;99.90;;;;;;5083807;28;20387;-82
2021/07/30 01:18:27;;;;;;;9.10;5.05;;;13.70;99.90;;;;;;5047101;28;20251;-79
2021/07/30 01:21:26;;;;;;;8.40;4.90;;;13.60;99.90;;;;;;5048552;28;20483;-79
2021/07/30 01:23:53;;;;;;;5.88;4.35;;;13.60;99.90;;;;;;5064399;28;20305;-79
2021/07/30 01:26:20;;;;;;;6.53;5.00;;;13.60;99.90;;;;;;5082184;28;20032;-79
2021/07/30 01:28:47;;;;;;;7.88;4.47;;;13.60;99.90;;;;;;5064798;28;20036;-78
2021/07/30 01:31:21;;;;;;;8.98;5.80;;;13.60;99.90;;;;;;5033690;28;20356;-79
2021/07/30 01:33:51;;;;;;;7.47;4.82;;;13.60;99.90;;;;;;5065576;28;20036;-79
2021/07/30 01:36:17;;;;;;;7.63;4.95;;;13.50;99.90;;;;;;5081256;28;20036;-79
2021/07/30 01:38:43;;;;;;;8.80;4.93;;;13.50;99.90;;;;;;5065031;28;20036;-79
2021/07/30 01:41:10;;;;;;;9.27;5.05;;;13.50;99.90;;;;;;5065976;28;20055;-79
2021/07/30 01:43:41;;;;;;;7.85;4.30;;;13.50;99.90;;;;;;5015953;28;20048;-79
2021/07/30 01:46:08;;;;;;;8.45;5.32;;;13.50;99.90;;;;;;5048024;28;20419;-79
2021/07/30 01:48:35;;;;;;;10.95;5.70;;;13.40;99.90;;;;;;5080801;28;20044;-79
2021/07/30 01:51:02;;;;;;;7.97;5.45;;;13.40;99.90;;;;;;5048713;28;20040;-79
2021/07/30 01:53:29;;;;;;;8.00;4.95;;;13.40;99.90;;;;;;5068604;28;20044;-79
2021/07/30 01:55:55;;;;;;;9.95;4.80;;;13.40;99.90;;;;;;5067899;28;20055;-79
2021/07/30 01:58:22;;;;;;;9.27;4.45;;;13.40;99.90;;;;;;5052312;28;20416;-78
2021/07/30 02:00:51;;;;;;;9.93;5.13;;;13.30;99.90;;;;;;5018878;28;20036;-79
2021/07/30 02:03:17;;;;;;;8.50;5.22;;;13.30;99.90;;;;;;5068366;28;20047;-79
2021/07/30 02:05:43;;;;;;;7.43;3.95;;;13.30;99.90;;;;;;5051014;28;20063;-79
2021/07/30 02:08:10;;;;;;;10.35;4.50;;;13.30;99.90;;;;;;5069406;28;20047;-79
2021/07/30 02:10:38;;;;;;;5.90;4.18;;;13.30;99.90;;;;;;5051864;28;20031;-79
2021/07/30 02:15:50;;;;;;;6.60;4.30;;;13.30;99.90;;;;;;5084633;28;20040;-78
2021/07/30 02:18:16;;;;;;;8.52;4.85;;;13.30;99.90;;;;;;5052032;28;20044;-78
2021/07/30 02:20:42;;;;;;;7.65;3.83;;;13.30;99.90;;;;;;5067755;28;20024;-79
2021/07/30 02:23:09;;;;;;;9.32;4.45;;;13.20;99.90;;;;;;5085934;28;20043;-78
2021/07/30 02:25:35;;;;;;;8.57;4.32;;;13.20;99.90;;;;;;5085015;28;20039;-78
2021/07/30 02:28:02;;;;;;;9.25;4.13;;;13.20;99.90;;;;;;5051730;28;20048;-79
2021/07/30 02:30:28;;;;;;;9.48;4.38;;;13.20;99.90;;;;;;5086698;28;20070;-80
2021/07/30 02:32:54;;;;;;;10.63;5.22;;;13.20;99.90;;;;;;5068682;28;20056;-79
2021/07/30 02:35:21;;;;;;;5.97;4.13;;;13.20;99.90;;;;;;5067561;28;20074;-79
2021/07/30 02:37:47;;;;;;;6.63;4.03;;;13.20;99.90;;;;;;5084177;28;20039;-79
2021/07/30 02:40:14;;;;;;;7.70;4.88;;;13.20;99.90;;;;;;5067190;28;20040;-78
2021/07/30 02:42:40;;;;;;;5.85;4.38;;;13.20;99.90;;;;;;5051503;28;20036;-78
2021/07/30 02:45:07;;;;;;;9.98;4.72;;;13.20;99.90;;;;;;5085090;28;20036;-78
2021/07/30 02:47:34;;;;;;;7.53;4.45;;;13.20;99.90;;;;;;5065275;28;20044;-78
2021/07/30 02:50:03;;;;;;;7.40;4.65;;;13.20;99.90;;;;;;5067318;28;20040;-78
2021/07/30 02:52:30;;;;;;;8.05;4.57;;;13.10;99.90;;;;;;5048901;28;20059;-78
2021/07/30 02:54:56;;;;;;;7.13;4.15;;;13.10;99.90;;;;;;5031111;28;20075;-78
2021/07/30 02:57:23;;;;;;;6.75;3.85;;;13.10;99.90;;;;;;5054947;28;20040;-79
2021/07/30 02:59:49;;;;;;;8.27;4.10;;;13.10;99.90;;;;;;5046919;28;20047;-78
2021/07/30 03:02:15;;;;;;;12.30;4.43;;;13.10;99.90;;;;;;5064343;28;20040;-79
2021/07/30 03:04:42;;;;;;;7.05;4.25;;;13.10;99.90;;;;;;5063386;28;20391;-78
2021/07/30 03:07:08;;;;;;;7.20;4.43;;;13.10;99.90;;;;;;5004402;28;20051;-79
2021/07/30 03:09:35;;;;;;;9.15;4.82;;;13.10;99.90;;;;;;5047659;28;20032;-79
2021/07/30 03:12:01;;;;;;;7.47;4.13;;;13.10;99.90;;;;;;5033022;28;20412;-79
2021/07/30 03:14:27;;;;;;;6.72;3.75;;;13.10;99.90;;;;;;5047958;28;20056;-78
2021/07/30 03:16:54;;;;;;;8.85;3.88;;;13.10;99.90;;;;;;5064462;28;20494;-79
2021/07/30 03:19:20;;;;;;;8.60;4.05;;;13.10;99.90;;;;;;5052648;28;20039;-78
2021/07/30 03:21:46;;;;;;;8.73;4.38;;;13.10;99.90;;;;;;5051376;28;20024;-79
2021/07/30 03:24:13;;;;;;;5.95;3.25;;;13.10;99.90;;;;;;5033433;28;20518;-78
2021/07/30 03:26:39;;;;;;;8.77;4.30;;;13.10;99.90;;;;;;5047145;28;20040;-79
2021/07/30 03:29:06;;;;;;;7.25;4.65;;;13.10;99.90;;;;;;5063099;28;20032;-79
2021/07/30 03:31:32;;;;;;;7.68;4.75;;;13.00;99.90;;;;;;5030861;28;20483;-79
2021/07/30 03:33:58;;;;;;;10.07;4.50;;;13.00;99.90;;;;;;5030491;28;20083;-79
2021/07/30 03:36:25;;;;;;;9.65;4.88;;;13.00;99.90;;;;;;5049378;28;20059;-78
2021/07/30 03:38:51;;;;;;;9.05;4.78;;;13.00;99.90;;;;;;5029997;28;20821;-78
2021/07/30 03:41:18;;;;;;;9.15;4.82;;;13.00;99.90;;;;;;5046577;28;20040;-78
2021/07/30 03:43:44;;;;;;;9.02;4.60;;;12.90;99.90;;;;;;5030201;28;20048;-78
2021/07/30 03:46:11;;;;;;;8.40;4.70;;;12.90;99.90;;;;;;5047948;28;20411;-78
2021/07/30 03:48:37;;;;;;;8.65;4.75;;;12.90;99.90;;;;;;5064618;28;20515;-78
2021/07/30 03:51:04;;;;;;;7.47;4.97;;;12.90;99.90;;;;;;5063304;28;20036;-79
2021/07/30 03:53:31;;;;;;;7.43;4.70;;;12.90;99.90;;;;;;5045984;28;20049;-78
2021/07/30 03:55:57;;;;;;;4.47;3.67;;;12.90;99.90;;;;;;5062717;28;20047;-78
2021/07/30 03:58:23;;;;;;;7.40;4.82;;;12.90;99.90;;;;;;5046268;28;20048;-79
2021/07/30 04:00:50;;;;;;;9.02;4.10;;;12.90;99.90;;;;;;5014834;28;20044;-80
2021/07/30 04:03:16;;;;;;;6.93;4.28;;;12.90;99.90;;;;;;5046854;28;20588;-79
2021/07/30 04:05:42;;;;;;;6.20;4.00;;;13.00;99.90;;;;;;5080071;28;20051;-79
2021/07/30 04:08:09;;;;;;;8.57;3.88;;;13.00;99.90;;;;;;5047530;28;20055;-79
2021/07/30 04:10:36;;;;;;;8.73;4.18;;;13.00;99.90;;;;;;5028261;28;20465;-79
2021/07/30 04:13:02;;;;;;;5.63;4.07;;;13.10;99.90;;;;;;5030752;28;20071;-79
2021/07/30 04:15:29;;;;;;;8.40;4.40;;;13.10;99.90;;;;;;5045549;28;20044;-79
2021/07/30 04:17:56;;;;;;;6.95;4.82;;;13.20;99.90;;;;;;5046713;28;20033;-79
2021/07/30 04:20:22;;;;;;;8.57;3.92;;;13.30;99.90;;;;;;5061616;28;20495;-79
2021/07/30 04:22:48;;;;;;;6.00;4.00;;;13.40;99.90;;;;;;5049236;28;20522;-79
2021/07/30 04:25:15;;;;;;;8.90;4.45;;;13.40;99.90;;;;;;5045634;28;20052;-79
2021/07/30 04:27:41;;;;;;;7.35;4.60;;;13.50;99.90;;;;;;5046330;28;20044;-79
2021/07/30 04:30:08;;;;;;;8.90;4.60;;;13.50;99.90;;;;;;5062086;28;20033;-79
2021/07/30 04:32:35;;;;;;;6.15;3.22;;;13.60;99.90;;;;;;5029893;28;20052;-79
2021/07/30 04:35:02;;;;;;;7.72;4.10;;;13.60;99.90;;;;;;5062113;28;20506;-78
2021/07/30 04:37:28;;;;;;;7.18;4.28;;;13.70;99.90;;;;;;5063993;28;20032;-79
2021/07/30 04:39:55;;;;;;;11.15;4.40;;;13.70;99.90;;;;;;5061652;28;20036;-78
2021/07/30 04:42:21;;;;;;;7.10;4.03;;;13.70;99.90;;;;;;5080194;28;20060;-78
2021/07/30 04:44:49;;;;;;;6.32;3.88;;;13.70;99.90;;;;;;5062286;28;20056;-79
2021/07/30 04:47:15;;;;;;;7.80;4.53;;;13.70;99.90;;;;;;5080576;28;20044;-79
2021/07/30 04:49:41;;;;;;;10.05;4.03;;;13.80;99.90;;;;;;5048125;28;20055;-79
2021/07/30 04:52:08;;;;;;;13.98;6.00;;;13.80;99.90;;;;;;5032164;28;20423;-79
2021/07/30 04:54:34;;;;;;;8.15;4.28;;;13.90;99.90;;;;;;5081663;28;20384;-79
2021/07/30 04:57:01;;;;;;;7.75;4.55;;;13.90;99.90;;;;;;5066249;28;20032;-79
2021/07/30 04:59:27;;;;;;;6.93;4.05;;;14.00;99.90;;;;;;5064473;28;20063;-79
2021/07/30 05:01:53;;;;;;;7.47;4.60;;;14.00;99.90;;;;;;5082959;28;20062;-79
2021/07/30 05:04:21;;;;;;;9.57;5.00;;;14.10;99.90;;;;;;5049196;28;20051;-78
2021/07/30 05:06:47;;;;;;;8.20;4.55;;;14.10;99.90;;;;;;5080484;28;20051;-78
2021/07/30 05:09:14;;;;;;;9.10;4.65;;;14.20;99.90;;;;;;5048270;28;20036;-78
2021/07/30 05:11:40;;;;;;;6.93;4.97;;;14.30;99.90;;;;;;5054497;28;20048;-79
2021/07/30 05:14:07;;;;;;;6.63;4.68;;;14.30;99.90;;;;;;5051024;28;20044;-79
2021/07/30 05:16:33;;;;;;;6.95;4.38;;;14.30;99.90;;;;;;5065458;28;20048;-78
2021/07/30 05:19:00;;;;;;;7.03;5.25;;;14.30;99.90;;;;;;5048224;28;20044;-79
2021/07/30 05:21:27;;;;;;;9.18;5.03;;;14.30;99.90;;;;;;5033237;28;20036;-79
2021/07/30 05:23:53;;;;;;;8.43;5.00;;;14.40;99.90;;;;;;5081466;28;20031;-79
2021/07/30 05:26:19;;;;;;;7.65;4.50;;;14.50;99.90;;;;;;5065570;28;20036;-78
2021/07/30 05:28:46;;;;;;;7.00;3.70;;;14.50;99.90;;;;;;5057837;28;20051;-79
2021/07/30 05:31:14;;;;;;;8.98;4.47;;;14.50;99.90;;;;;;5070971;28;20036;-79
2021/07/30 05:33:41;;;;;;;7.75;4.95;;;14.50;99.90;;;;;;5052996;28;20043;-79
2021/07/30 05:36:08;;;;;;;7.70;4.78;;;14.50;99.90;;;;;;5036254;28;20041;-79
2021/07/30 05:38:34;;;;;;;9.95;5.10;;;14.60;99.90;;;;;;5069275;28;20020;-79
2021/07/30 05:41:01;;;;;;;7.00;4.35;;;14.70;99.90;;;;;;5052000;28;20040;-79
2021/07/30 05:43:27;;;;;;;8.63;4.93;;;14.80;99.90;;;;;;5086453;28;20047;-79
2021/07/30 05:45:53;;;;;;;6.82;4.35;;;14.90;99.90;;;;;;5052632;28;20056;-79
2021/07/30 05:48:22;;;;;;;10.68;5.07;;;15.20;99.90;;;;;;5070249;28;20040;-82
2021/07/30 05:50:49;;;;;;;8.13;4.43;;;15.40;99.90;;;;;;5085551;28;20479;-79
2021/07/30 05:53:15;;;;;;;9.32;4.38;;;15.60;99.90;;;;;;5086441;28;20050;-83
2021/07/30 05:55:41;;;;;;;8.10;4.90;;;15.80;99.90;;;;;;5051892;28;20738;-82
2021/07/30 05:58:08;;;;;;;8.00;4.18;;;16.00;99.90;;;;;;5086673;28;20040;-83
2021/07/30 06:00:34;;;;;;;6.97;4.13;;;16.20;99.90;;;;;;5051588;28;20075;-82
2021/07/30 06:03:01;;;;;;;10.60;5.05;;;16.30;99.90;;;;;;5086677;28;20035;-82
2021/07/30 06:05:27;;;;;;;7.55;4.28;;;16.30;99.90;;;;;;5069208;28;20056;-82
2021/07/30 06:07:57;;;;;;;7.82;4.25;;;16.40;99.90;;;;;;5052913;28;20052;-79
2021/07/30 06:10:24;;;;;;;8.63;5.35;;;16.50;99.90;;;;;;5068421;28;20059;-79
2021/07/30 06:12:51;;;;;;;8.75;5.88;;;16.60;99.90;;;;;;5057629;28;20040;-79
2021/07/30 06:15:23;;;;;;;7.95;4.82;;;16.80;99.90;;;;;;5049936;28;20485;-79
2021/07/30 06:17:50;;;;;;;9.32;5.28;;;17.00;99.90;;;;;;5087406;28;20475;-79
2021/07/30 06:20:17;;;;;;;9.00;4.65;;;17.30;99.90;;;;;;5053529;28;20040;-79
2021/07/30 06:22:44;;;;;;;7.10;4.05;;;17.40;99.90;;;;;;5068489;28;20051;-79
2021/07/30 06:25:11;;;;;;;8.10;5.10;;;17.60;99.90;;;;;;5035798;28;20040;-79
2021/07/30 06:27:38;;;;;;;10.82;5.38;;;17.70;99.90;;;;;;5085069;28;20048;-78
2021/07/30 06:30:07;;;;;;;8.45;5.22;;;17.70;99.90;;;;;;5084696;28;20036;-78
2021/07/30 06:32:43;;;;;;;8.10;5.05;;;17.60;99.90;;;;;;5086620;28;20032;-78
2021/07/30 06:35:10;;;;;;;10.60;5.18;;;17.70;99.90;;;;;;5084890;28;20051;-78
2021/07/30 06:37:37;;;;;;;7.40;4.85;;;17.70;99.90;;;;;;5068168;28;20043;-78
2021/07/30 06:40:05;;;;;;;8.52;4.80;;;18.00;99.90;;;;;;5067122;28;20035;-79
2021/07/30 06:42:33;;;;;;;10.73;5.22;;;18.30;99.90;;;;;;5068925;28;20399;-78
2021/07/30 06:44:59;;;;;;;12.55;6.30;;;18.70;99.90;;;;;;5067283;28;20039;-78
2021/07/30 06:47:26;;;;;;;12.82;6.10;;;18.90;99.80;;;;;;5085473;28;20069;-78
2021/07/30 06:49:52;;;;;;;7.88;4.70;;;19.00;99.40;;;;;;5084319;28;20043;-78
2021/07/30 06:52:19;;;;;;;11.18;5.30;;;19.10;99.10;;;;;;5018519;28;20048;-78
2021/07/30 06:54:45;;;;;;;7.70;4.20;;;19.10;98.80;;;;;;5067966;28;20043;-78
2021/07/30 06:57:13;;;;;;;11.35;4.43;;;19.20;98.80;;;;;;5052036;28;20126;-78
2021/07/30 06:59:39;;;;;;;9.27;4.75;;;19.40;98.70;;;;;;5067566;28;20036;-78
2021/07/30 07:02:06;;;;;;;11.05;5.03;;;19.50;98.30;;;;;;5068273;28;20032;-78
2021/07/30 07:04:32;;;;;;;7.85;4.60;;;19.70;98.00;;;;;;5054987;28;20629;-78
2021/07/30 07:06:59;;;;;;;13.35;4.40;;;19.80;97.80;;;;;;5067174;28;20044;-78
2021/07/30 07:09:25;;;;;;;7.32;4.78;;;19.90;97.50;;;;;;5050167;28;20406;-82
2021/07/30 07:11:52;;;;;;;9.68;4.85;;;20.00;97.40;;;;;;5086049;28;20058;-81
2021/07/30 07:14:18;;;;;;;7.40;4.05;;;20.10;97.20;;;;;;5067597;28;20050;-81
2021/07/30 07:16:44;;;;;;;8.63;4.47;;;20.20;97.10;;;;;;5086542;28;20032;-81
2021/07/30 07:19:12;;;;;;;6.40;3.05;;;20.20;96.90;;;;;;5083388;28;20043;-81
2021/07/30 07:21:39;;;;;;;9.23;4.28;;;20.30;96.80;;;;;;5084728;28;20039;-81
2021/07/30 07:24:06;;;;;;;10.70;4.20;;;20.40;96.70;;;;;;5085416;28;20395;-80
2021/07/30 07:26:36;;;;;;;8.20;4.07;;;20.40;96.50;;;;;;5053423;28;20062;-81
2021/07/30 07:29:06;;;;;;;8.52;3.85;;;20.40;96.50;;;;;;5065056;28;20159;-81
2021/07/30 07:31:32;;;;;;;10.20;4.45;;;20.40;96.50;;;;;;5067157;28;20044;-80
2021/07/30 07:33:59;;;;;;;12.65;5.53;;;20.50;95.80;;;;;;5067201;28;20036;-81
2021/07/30 07:36:25;;;;;;;10.45;4.80;;;20.60;95.90;;;;;;5048697;28;20051;-81
2021/07/30 07:38:52;;;;;;;8.43;3.95;;;20.70;95.60;;;;;;5082218;28;20545;-82
2021/07/30 07:41:18;;;;;;;9.93;3.75;;;20.70;95.40;;;;;;5084381;28;20032;-83
2021/07/30 07:43:45;;;;;;;6.45;3.92;;;20.80;95.40;;;;;;5067958;28;20380;-82
2021/07/30 07:46:11;;;;;;;8.70;3.70;;;20.80;95.30;;;;;;5067383;28;20055;-83
2021/07/30 07:48:38;;;;;;;7.43;3.47;;;20.90;95.60;;;;;;5067512;28;20055;-84
2021/07/30 07:51:04;;;;;;;7.40;3.60;;;21.00;95.20;;;;;;5065986;28;20384;-81
2021/07/30 07:53:31;;;;;;;9.35;3.30;;;21.20;95.10;;;;;;5035295;28;20134;-82
2021/07/30 07:56:05;;;;;;;7.90;3.38;;;21.30;94.80;;;;;;5053902;28;20044;-82
2021/07/30 07:58:32;;;;;;;8.75;3.70;;;21.30;94.50;;;;;;5067523;28;20039;-81
2021/07/30 08:00:59;;;;;;;9.32;3.67;;;21.30;94.40;;;;;;5081551;28;20032;-83
2021/07/30 08:03:26;;;;;;;8.02;2.97;;;21.30;94.30;;;;;;5082414;28;20708;-83
2021/07/30 08:05:53;;;;;;;10.32;4.40;;;21.30;94.30;;;;;;5065481;28;20040;-83
2021/07/30 08:08:19;;;;;;;9.93;4.15;;;21.30;94.00;;;;;;5083618;28;20032;-83
2021/07/30 08:10:46;;;;;;;8.55;4.70;;;21.40;94.20;;;;;;5049159;28;20047;-82
2021/07/30 08:13:12;;;;;;;8.50;4.40;;;21.50;94.10;;;;;;5065481;28;20043;-81
2021/07/30 08:15:40;;;;;;;9.68;4.35;;;21.60;94.30;;;;;;5082225;28;20043;-80
2021/07/30 08:18:07;;;;;;;10.80;4.38;;;21.70;93.60;;;;;;5084095;28;20047;-81
2021/07/30 08:20:33;;;;;;;7.88;3.38;;;21.80;93.60;;;;;;5079942;28;20024;-81
2021/07/30 08:23:00;;;;;;;5.45;3.28;;;22.10;93.30;;;;;;5064258;28;20036;-81
2021/07/30 08:25:27;;;;;;;5.63;2.63;;;22.30;93.00;;;;;;5081225;28;20054;-82
2021/07/30 08:27:53;;;;;;;11.15;3.95;;;22.50;92.90;;;;;;5049323;28;20047;-81
2021/07/30 08:30:20;;;;;;;7.88;3.33;;;22.70;92.50;;;;;;5047229;28;20042;-81
2021/07/30 08:32:47;;;;;;;7.20;3.63;;;22.80;92.30;;;;;;5031757;28;20122;-81
2021/07/30 08:35:13;;;;;;;5.88;2.67;;;23.00;92.20;;;;;;5083671;28;20476;-81
2021/07/30 08:37:39;;;;;;;10.63;4.00;;;23.10;92.00;;;;;;5065442;28;20051;-81
2021/07/30 08:40:07;;;;;;;10.82;3.45;;;23.20;91.70;;;;;;5046981;28;20486;-80
2021/07/30 08:42:37;;;;;;;10.70;3.70;;;23.40;91.00;;;;;;5051140;28;20048;-82
2021/07/30 08:45:05;;;;;;;6.90;2.17;;;23.30;90.10;;;;;;5083344;28;20537;-84
2021/07/30 08:47:32;;;;;;;6.40;2.38;;;23.30;90.30;;;;;;5030688;28;20343;-84
2021/07/30 08:49:58;;;;;;;5.97;2.20;;;23.30;90.40;;;;;;5082112;28;20395;-81
2021/07/30 08:52:35;;;;;;;8.70;2.90;;;23.30;90.50;;;;;;5084097;28;20067;-81
2021/07/30 08:55:02;;;;;;;7.88;2.75;;;23.30;90.40;;;;;;5055171;28;20039;-81
2021/07/30 08:57:28;;;;;;;7.55;2.50;;;23.30;90.30;;;;;;5051806;28;20040;-81
2021/07/30 08:59:55;;;;;;;6.03;1.88;;;23.30;89.90;;;;;;5069632;28;20055;-81
2021/07/30 09:02:21;;;;;;;7.43;2.30;;;23.50;89.90;;;;;;5064879;28;20043;-81
2021/07/30 09:04:47;;;;;;;7.40;2.13;;;23.70;89.60;;;;;;5082539;28;20501;-79
2021/07/30 09:07:14;;;;;;;7.95;3.17;;;23.90;88.20;;;;;;5034209;28;20055;-79
2021/07/30 09:09:52;;;;;;;9.18;2.30;;;24.00;87.90;;;;;;5064896;28;20398;-78
2021/07/30 09:12:22;;;;;;;5.10;2.15;;;24.10;87.70;;;;;;5083488;28;20040;-78
2021/07/30 09:14:48;;;;;;;7.22;2.00;;;24.20;87.00;;;;;;5066664;28;20044;-79
2021/07/30 09:17:15;;;;;;;6.93;1.70;;;24.30;87.30;;;;;;5049955;28;20518;-78
2021/07/30 09:20:22;;;;;;;8.30;2.58;;;24.50;87.40;;;;;;5082224;28;20035;-78
2021/07/30 09:22:50;;;;;;;7.47;1.70;;;24.80;85.80;;;;;;5053456;28;20949;-78
2021/07/30 09:25:36;;;;;;;5.72;1.55;;;24.90;85.00;;;;;;5082396;28;20044;-78
2021/07/30 09:28:07;;;;;;;5.07;1.33;;;25.10;85.10;;;;;;5082645;28;20044;-78
2021/07/30 09:30:34;;;;;;;6.25;1.90;;;25.30;84.10;;;;;;5080707;28;20040;-77
2021/07/30 09:33:01;;;;;;;4.35;1.05;;;25.30;83.40;;;;;;5047815;28;20044;-78
2021/07/30 09:35:28;;;;;;;6.97;2.20;;;25.40;83.30;;;;;;5082695;28;20401;-78
2021/07/30 09:38:18;;;;;;;3.40;1.40;;;25.40;81.20;;;;;;5037383;28;20056;-79
2021/07/30 09:40:44;;;;;;;5.03;1.50;;;25.50;80.60;;;;;;5034601;28;20547;-79
2021/07/30 09:43:22;;;;;;;3.55;1.27;;;25.50;79.10;;;;;;5033157;28;20422;-80
2021/07/30 09:45:51;;;;;;;2.70;0.70;;;25.60;79.20;;;;;;5072860;28;20040;-82
2021/07/30 09:48:19;;;;;;;5.25;1.33;;;25.80;79.20;;;;;;5051118;28;20040;-81
2021/07/30 09:50:47;;;;;;;5.47;1.38;;;26.10;78.20;;;;;;5069102;28;20089;-81
2021/07/30 09:53:14;;;;;;;2.47;0.90;;;26.50;77.10;;;;;;5069938;28;20035;-80
2021/07/30 09:55:42;;;;;;;4.60;1.10;;;26.70;76.70;;;;;;5036048;28;20058;-80
2021/07/30 09:58:08;;;;;;;3.58;1.20;;;26.90;75.90;;;;;;5071082;28;20031;-84
2021/07/30 10:00:36;;;;;;;22.35;10.57;;;27.00;75.00;;;;;;5068561;28;21102;-81
2021/07/30 10:03:03;;;;;;;5.32;2.45;;;27.10;73.60;;;;;;5086895;28;20050;-81
2021/07/30 10:05:31;;;;;;;4.38;1.48;;;27.10;72.90;;;;;;5084597;28;20048;-79
2021/07/30 10:07:59;;;;;;;5.25;1.40;;;27.10;72.10;;;;;;5104305;28;21463;-78
2021/07/30 10:10:28;;;;;;;3.03;0.90;;;27.20;72.20;;;;;;5082239;28;20051;-79
2021/07/30 10:13:02;;;;;;;4.57;1.90;;;27.20;71.80;;;;;;5052777;28;20078;-77
2021/07/30 10:15:29;;;;;;;4.45;1.77;;;27.30;71.20;;;;;;5054994;28;20062;-77
2021/07/30 10:17:56;;;;;;;3.60;1.55;;;27.40;70.20;;;;;;5069961;28;20048;-80
2021/07/30 10:20:25;;;;;;;5.50;1.45;;;27.40;70.00;;;;;;5071245;28;20039;-78
2021/07/30 10:23:07;;;;;;;4.40;1.27;;;27.50;70.20;;;;;;5090978;28;20035;-77
2021/07/30 10:25:39;;;;;;;1.98;1.02;;;27.80;69.90;;;;;;5088811;28;20487;-78
2021/07/30 10:28:10;;;;;;;;;;;28.00;69.10;;;;;;5076539;28;20044;-78
2021/07/30 10:30:53;;;;;;;3.83;1.08;;;28.20;68.90;;;;;;5073910;28;19923;-77
2021/07/30 10:33:34;;;;;;;5.57;1.15;;;28.10;67.90;;;;;;5105715;28;20039;-78
2021/07/30 10:36:05;;;;;;;3.70;1.27;;;28.00;67.40;;;;;;5055556;28;20035;-78
2021/07/30 10:38:32;;;;;;;5.03;1.40;;;27.90;67.20;;;;;;5071694;28;20054;-78
2021/07/30 10:40:59;;;;;;;3.45;1.85;;;27.90;68.00;;;;;;5086560;28;20036;-78
2021/07/30 10:43:27;;;;;;;4.40;1.30;;;27.80;67.90;;;;;;5087992;28;20048;-78
2021/07/30 10:46:10;;;;;;;5.07;1.80;;;27.80;68.20;;;;;;5069803;28;20047;-77
2021/07/30 10:48:44;;;;;;;4.25;1.02;;;27.90;67.80;;;;;;5087946;28;20402;-77
2021/07/30 10:51:20;;;;;;;3.63;1.27;;;27.90;67.40;;;;;;5072257;28;20043;-78
2021/07/30 10:53:49;;;;;;;3.35;1.40;;;28.00;67.20;;;;;;5060127;28;20513;-78
2021/07/30 10:56:18;;;;;;;2.95;1.20;;;27.90;66.40;;;;;;5070224;28;20049;-77
2021/07/30 10:58:45;;;;;;;3.95;1.10;;;28.00;67.10;;;;;;5104229;28;20024;-77
2021/07/30 11:01:13;;;;;;;4.47;0.98;;;28.20;67.00;;;;;;5106978;28;20387;-78
2021/07/30 11:03:49;;;;;;;3.35;1.20;;;28.50;66.00;;;;;;5087990;28;20172;-79
2021/07/30 11:06:26;;;;;;;2.83;0.95;;;28.70;65.30;;;;;;5089403;28;20055;-79
2021/07/30 11:09:08;;;;;;;5.97;1.05;;;28.90;65.50;;;;;;5070510;28;20034;-78
2021/07/30 11:11:49;;;;;;;;;;;29.10;64.70;;;;;;5073196;28;20042;-78
2021/07/30 11:14:22;;;;;;;3.22;1.00;;;29.40;64.20;;;;;;5053980;28;19911;-78
2021/07/30 11:17:00;;;;;;;3.53;1.70;;;30.00;63.80;;;;;;5086611;28;20028;-77
2021/07/30 11:19:28;;;;;;;3.05;1.13;;;30.50;62.60;;;;;;5052275;28;20051;-77
2021/07/30 11:21:57;;;;;;;3.85;1.00;;;30.50;61.10;;;;;;5089439;28;20032;-78
2021/07/30 11:24:24;;;;;;;2.95;1.20;;;30.30;61.30;;;;;;5069957;28;20590;-77
2021/07/30 11:26:51;;;;;;;6.28;1.10;;;30.00;61.50;;;;;;5054477;28;20032;-77
2021/07/30 11:29:19;;;;;;;2.67;0.88;;;29.70;60.60;;;;;;5051746;28;20055;-77
2021/07/30 11:32:09;;;;;;;3.90;1.00;;;29.50;61.20;;;;;;5071326;28;20035;-79
2021/07/30 11:34:37;;;;;;;2.03;0.95;;;29.70;61.40;;;;;;5087057;28;20039;-77
2021/07/30 11:37:05;;;;;;;2.33;0.80;;;29.90;60.90;;;;;;5070083;28;20494;-77
2021/07/30 11:39:38;;;;;;;2.42;0.77;;;30.00;60.30;;;;;;5069576;28;20054;-78
2021/07/30 11:42:06;;;;;;;2.63;0.90;;;30.40;60.00;;;;;;5070474;28;20129;-77
2021/07/30 11:44:50;;;;;;;5.03;0.70;;;30.70;58.30;;;;;;5086480;28;20054;-79
2021/07/30 11:47:21;;;;;;;1.63;0.70;;;30.90;59.00;;;;;;5087290;28;20056;-79
2021/07/30 11:50:00;;;;;;;3.13;2.03;;;31.20;58.80;;;;;;5068976;28;20043;-77
2021/07/30 11:52:28;;;;;;;2.50;1.30;;;31.40;57.60;;;;;;5087263;28;20038;-80
2021/07/30 11:55:09;;;;;;;2.33;1.00;;;31.70;56.00;;;;;;5056003;27;20489;-80
2021/07/30 11:57:38;;;;;;;2.78;0.80;;;31.70;56.00;;;;;;5073608;27;20066;-79
2021/07/30 12:00:05;;;;;;;2.05;0.93;;;31.50;56.00;;;;;;5108304;27;20040;-79
2021/07/30 12:02:38;;;;;;;3.83;0.85;;;31.30;56.80;;;;;;5091834;28;20036;-79
2021/07/30 12:05:05;;;;;;;2.15;1.00;;;31.40;57.20;;;;;;5087346;28;20616;-80
2021/07/30 12:07:36;;;;;;;1.50;0.77;;;31.20;56.10;;;;;;5053269;28;20044;-80
2021/07/30 12:10:05;;;;;;;2.60;0.70;;;31.00;56.70;;;;;;5086498;28;20036;-79
2021/07/30 12:12:37;;;;;;;4.43;0.80;;;30.80;57.30;;;;;;5069847;28;20296;-77
2021/07/30 12:15:04;;;;;;;3.42;0.90;;;30.60;56.40;;;;;;5085907;28;20038;-81
2021/07/30 12:17:34;;;;;;;3.38;0.90;;;30.50;56.50;;;;;;5071206;28;20047;-81
2021/07/30 12:20:04;;;;;;;1.55;0.70;;;30.20;56.70;;;;;;5085663;28;20046;-77
2021/07/30 12:22:43;;;;;;;1.92;1.00;;;29.90;56.70;;;;;;5037436;28;20047;-77
2021/07/30 12:25:13;;;;;;;2.00;0.73;;;29.50;57.90;;;;;;5103914;28;20027;-77
2021/07/30 12:27:40;;;;;;;3.28;0.88;;;29.20;58.60;;;;;;5051992;28;20052;-77
2021/07/30 12:30:07;;;;;;;2.78;0.90;;;29.20;59.40;;;;;;5054339;28;20050;-77
2021/07/30 12:32:38;;;;;;;3.58;0.88;;;29.20;58.40;;;;;;5052238;28;20047;-76
2021/07/30 12:35:14;;;;;;;3.38;0.90;;;29.00;58.00;;;;;;5084176;28;20043;-76
2021/07/30 12:38:03;;;;;;;2.47;0.98;;;28.70;58.50;;;;;;5103366;28;20039;-77
2021/07/30 12:40:30;;;;;;;2.88;1.20;;;28.30;59.40;;;;;;5082820;28;20043;-77
2021/07/30 12:43:18;;;;;;;4.50;1.30;;;27.90;59.60;;;;;;5085536;28;20047;-77
2021/07/30 12:45:49;;;;;;;3.40;1.20;;;27.50;60.70;;;;;;5068276;28;20458;-77
2021/07/30 12:48:18;;;;;;;2.38;0.95;;;27.10;61.50;;;;;;5069772;28;20047;-77
2021/07/30 12:50:45;;;;;;;2.88;0.90;;;26.90;62.60;;;;;;5050300;28;20040;-77
2021/07/30 12:53:19;;;;;;;2.85;1.27;;;26.80;63.20;;;;;;5068160;28;20471;-76